Aviation Digital Data Service (ADDS)

Output produced by METARs form (1210 UTC 15 November 2018)
found at http://www.aviationweather.gov/metar/data/
 
TAF TQPF 151100Z 1512/1612 11014KT 9999 SCT018 
     PROB30 
     TEMPO 1606/1612 11015G25KT SHRA